Aviation Digital Data Service (ADDS)

Output produced by METARs form (1602 UTC 03 June 2020)
found at http://www.aviationweather.gov/metar/data/
 
Forecast for: OKBK (KUWAIT INTL (MIL, KW)
Text: TAF OKBK 031045Z 0312/0418 VRB03KT 6000 NSC
Forecast period: 1200 UTC 03 June 2020 to 0000 UTC 04 June 2020
Forecast type: FROM: standard forecast or significant change
Winds: variable direction winds at 3 MPH (3 knots; 1.5 m/s)
Visibility: 4 miles (6 km)
Ceiling: unknown
Clouds: missing
Weather: no significant weather forecast for this period
Text: BECMG 0400/0402 35010G20KT
Forecast period: 0000 to 1800 UTC 04 June 2020
Forecast type: BECOMING: Conditions expected to become as follows by 0200 UTC 04 June 2020
Winds: from the N (350 degrees) at 12 MPH (10 knots; 5.1 m/s)
gusting to 23 MPH (20 knots; 10.3 m/s)
Visibility: 4 miles (6 km)
Ceiling: unknown
Clouds: missing
Weather: no significant weather forecast for this period